Time,TemperatureF,DewpointF,PressureIn,WindDirection,WindDirectionDegrees,WindSpeedMPH,WindSpeedGustMPH,Humidity,HourlyPrecipIn,Conditions,Clouds,dailyrainin,SolarRadiationWatts/m^2,SoftwareType,DateUTC
2013-05-24 00:01:00,63.6,59.0,29.78,SE,133,0.0,0.0,85,0.00,,,0.00,0,WeatherCatV1.15B25,2013-05-24 04:01:00,
2013-05-24 00:06:00,63.5,58.9,29.78,SE,133,0.0,0.0,85,0.00,,,0.00,0,WeatherCatV1.15B25,2013-05-24 04:06:00,
2013-05-24 00:11:00,63.5,58.9,29.78,SE,133,0.0,0.0,85,0.00,,,0.00,0,WeatherCatV1.15B25,2013-05-24 04:11:00,
2013-05-24 00:16:00,63.4,58.8,29.78,SE,133,0.0,0.0,85,0.00,,,0.00,0,WeatherCatV1.15B25,2013-05-24 04:16:00,
2013-05-24 00:21:00,63.4,58.8,29.78,SE,133,0.0,0.0,85,0.00,,,0.00,0,WeatherCatV1.15B25,2013-05-24 04:21:00,
2013-05-24 00:26:00,63.3,58.7,29.78,SE,133,0.0,0.0,85,0.00,,,0.00,0,WeatherCatV1.15B25,2013-05-24 04:26:00,
2013-05-24 00:31:00,63.1,58.5,29.78,SE,133,0.0,0.0,85,0.00,,,0.00,0,WeatherCatV1.15B25,2013-05-24 04:31:00,
2013-05-24 00:37:00,63.1,58.5,29.78,SE,133,0.0,0.0,85,0.00,,,0.00,0,WeatherCatV1.15B25,2013-05-24 04:37:00,
2013-05-24 00:42:00,63.1,58.5,29.78,SE,133,0.0,0.0,85,0.00,,,0.00,0,WeatherCatV1.15B25,2013-05-24 04:42:00,
2013-05-24 00:47:00,63.1,58.5,29.78,SE,133,0.0,0.0,85,0.00,,,0.00,0,WeatherCatV1.15B25,2013-05-24 04:47:00,
2013-05-24 00:52:00,63.1,58.5,29.78,SE,133,0.0,0.0,85,0.00,,,0.00,0,WeatherCatV1.15B25,2013-05-24 04:52:00,
2013-05-24 00:57:00,63.1,58.5,29.78,SSE,150,0.0,0.0,85,0.00,,,0.00,0,WeatherCatV1.15B25,2013-05-24 04:57:00,
2013-05-24 01:02:00,63.1,58.5,29.78,SSE,150,0.0,0.0,85,0.00,,,0.00,0,WeatherCatV1.15B25,2013-05-24 05:02:00,
2013-05-24 01:07:00,62.9,58.3,29.78,SSE,156,0.0,0.0,85,0.00,,,0.00,0,WeatherCatV1.15B25,2013-05-24 05:07:00,
2013-05-24 01:11:00,62.9,58.3,29.78,SSE,164,0.0,1.0,85,0.00,,,0.00,0,WeatherCatV1.15B25,2013-05-24 05:11:00,
2013-05-24 01:16:00,62.9,58.3,29.78,South,177,0.0,0.0,85,0.00,,,0.00,0,WeatherCatV1.15B25,2013-05-24 05:16:00,
2013-05-24 01:21:00,62.8,58.2,29.78,South,179,0.0,0.0,85,0.00,,,0.00,0,WeatherCatV1.15B25,2013-05-24 05:21:00,
2013-05-24 01:26:00,62.8,58.2,29.77,South,179,0.0,0.0,85,0.00,,,0.00,0,WeatherCatV1.15B25,2013-05-24 05:26:00,
2013-05-24 01:31:00,62.8,58.2,29.77,SW,214,0.0,2.0,85,0.00,,,0.00,0,WeatherCatV1.15B25,2013-05-24 05:31:00,
2013-05-24 01:36:00,62.6,58.0,29.77,West,277,0.0,1.0,85,0.00,,,0.00,0,WeatherCatV1.15B25,2013-05-24 05:36:00,
2013-05-24 01:41:00,62.5,57.9,29.77,West,277,0.0,0.0,85,0.00,,,0.00,0,WeatherCatV1.15B25,2013-05-24 05:41:00,
2013-05-24 01:46:00,62.5,57.9,29.77,West,277,0.0,0.0,85,0.00,,,0.00,0,WeatherCatV1.15B25,2013-05-24 05:46:00,
2013-05-24 01:51:00,62.2,57.6,29.77,West,277,0.0,0.0,85,0.00,,,0.00,0,WeatherCatV1.15B25,2013-05-24 05:51:00,
2013-05-24 01:56:00,62.2,57.6,29.77,West,277,0.0,0.0,85,0.00,,,0.00,0,WeatherCatV1.15B25,2013-05-24 05:56:00,
2013-05-24 02:01:00,62.1,57.5,29.76,West,277,0.0,0.0,85,0.00,,,0.00,0,WeatherCatV1.15B25,2013-05-24 06:01:00,
2013-05-24 02:06:00,62.0,57.4,29.76,West,277,0.0,1.0,85,0.00,,,0.00,0,WeatherCatV1.15B25,2013-05-24 06:06:00,
2013-05-24 02:11:00,61.9,57.3,29.76,West,277,0.0,0.0,85,0.00,,,0.00,0,WeatherCatV1.15B25,2013-05-24 06:11:00,
2013-05-24 02:16:00,61.8,57.2,29.76,West,277,0.0,1.0,85,0.00,,,0.00,0,WeatherCatV1.15B25,2013-05-24 06:16:00,
2013-05-24 02:21:00,61.6,57.0,29.76,West,277,2.0,2.0,85,0.00,,,0.00,0,WeatherCatV1.15B25,2013-05-24 06:21:00,
2013-05-24 02:26:00,61.4,56.8,29.76,West,277,1.0,1.0,85,0.00,,,0.00,0,WeatherCatV1.15B25,2013-05-24 06:26:00,
2013-05-24 02:31:00,61.3,56.7,29.76,WNW,302,0.0,1.0,85,0.00,,,0.00,0,WeatherCatV1.15B25,2013-05-24 06:31:00,
2013-05-24 02:36:00,61.1,56.6,29.76,WNW,302,1.0,2.0,85,0.00,,,0.00,0,WeatherCatV1.15B25,2013-05-24 06:36:00,
2013-05-24 02:41:00,61.1,56.6,29.76,WNW,302,0.0,0.0,85,0.00,,,0.00,0,WeatherCatV1.15B25,2013-05-24 06:41:00,
2013-05-24 02:46:00,60.9,56.4,29.76,WSW,249,3.0,4.0,85,0.00,,,0.00,0,WeatherCatV1.15B25,2013-05-24 06:46:00,
2013-05-24 02:51:00,60.7,56.2,29.76,WNW,302,0.0,4.0,85,0.00,,,0.00,0,WeatherCatV1.15B25,2013-05-24 06:51:00,
2013-05-24 02:55:00,60.6,56.1,29.76,West,274,4.0,4.0,85,0.00,,,0.00,0,WeatherCatV1.15B25,2013-05-24 06:55:00,
2013-05-24 03:00:00,60.4,55.9,29.75,West,271,0.0,0.0,85,0.00,,,0.00,0,WeatherCatV1.15B25,2013-05-24 07:00:00,
2013-05-24 03:05:00,60.3,55.8,29.76,WNW,287,1.0,1.0,85,0.00,,,0.00,0,WeatherCatV1.15B25,2013-05-24 07:05:00,
2013-05-24 03:10:00,60.2,55.7,29.75,WNW,287,0.0,3.0,85,0.00,,,0.00,0,WeatherCatV1.15B25,2013-05-24 07:10:00,
2013-05-24 03:15:00,60.1,55.6,29.75,WNW,287,1.0,1.0,85,0.00,,,0.01,0,WeatherCatV1.15B25,2013-05-24 07:15:00,
2013-05-24 03:20:00,60.0,55.5,29.75,West,259,0.0,1.0,85,0.00,,,0.01,0,WeatherCatV1.15B25,2013-05-24 07:20:00,
2013-05-24 03:25:00,59.9,55.4,29.75,SW,223,0.0,0.0,85,0.00,,,0.01,0,WeatherCatV1.15B25,2013-05-24 07:25:00,
2013-05-24 03:30:00,59.9,55.4,29.75,SSW,202,0.0,0.0,85,0.00,,,0.01,0,WeatherCatV1.15B25,2013-05-24 07:30:00,
2013-05-24 03:35:00,59.8,55.3,29.76,WNW,296,1.0,1.0,85,0.00,,,0.01,0,WeatherCatV1.15B25,2013-05-24 07:35:00,
2013-05-24 03:40:00,59.8,55.3,29.76,WNW,296,0.0,0.0,85,0.00,,,0.01,0,WeatherCatV1.15B25,2013-05-24 07:40:00,
2013-05-24 03:45:00,59.8,55.3,29.76,WNW,296,0.0,0.0,85,0.00,,,0.01,0,WeatherCatV1.15B25,2013-05-24 07:45:00,
2013-05-24 03:50:00,59.8,55.3,29.76,WSW,251,2.0,3.0,85,0.00,,,0.01,0,WeatherCatV1.15B25,2013-05-24 07:50:00,
2013-05-24 03:55:00,59.9,55.4,29.76,WNW,300,2.0,8.0,85,0.00,,,0.01,0,WeatherCatV1.15B25,2013-05-24 07:55:00,
2013-05-24 04:00:00,60.0,55.8,29.76,North,7,0.0,2.0,86,0.00,,,0.01,0,WeatherCatV1.15B25,2013-05-24 08:00:00,
2013-05-24 04:05:00,60.2,56.0,29.76,WNW,287,1.0,1.0,86,0.00,,,0.01,0,WeatherCatV1.15B25,2013-05-24 08:05:00,
2013-05-24 04:10:00,60.2,56.0,29.76,West,265,2.0,6.0,86,0.00,,,0.01,0,WeatherCatV1.15B25,2013-05-24 08:10:00,
2013-05-24 04:15:00,60.3,56.4,29.77,WNW,293,2.0,4.0,87,0.00,,,0.01,0,WeatherCatV1.15B25,2013-05-24 08:15:00,
2013-05-24 04:20:00,60.4,56.5,29.77,NW,306,0.0,3.0,87,0.00,,,0.01,0,WeatherCatV1.15B25,2013-05-24 08:20:00,
2013-05-24 04:25:00,60.4,56.5,29.77,WNW,298,3.0,7.0,87,0.00,,,0.01,0,WeatherCatV1.15B25,2013-05-24 08:25:00,
2013-05-24 04:30:00,60.6,56.4,29.77,WNW,292,1.0,6.0,86,0.00,,,0.01,0,WeatherCatV1.15B25,2013-05-24 08:30:00,
2013-05-24 04:35:00,60.5,56.3,29.78,WNW,285,3.0,7.0,86,0.00,,,0.01,0,WeatherCatV1.15B25,2013-05-24 08:35:00,
2013-05-24 04:41:00,60.5,56.3,29.78,NW,313,7.0,11.0,86,0.00,,,0.01,0,WeatherCatV1.15B25,2013-05-24 08:41:00,
2013-05-24 04:46:00,60.4,55.9,29.78,WNW,283,4.0,5.0,85,0.00,,,0.01,0,WeatherCatV1.15B25,2013-05-24 08:46:00,
2013-05-24 04:51:00,60.2,55.3,29.78,WNW,301,8.0,13.0,84,0.00,,,0.01,0,WeatherCatV1.15B25,2013-05-24 08:51:00,
2013-05-24 04:56:00,60.0,55.5,29.79,WNW,289,3.0,5.0,85,0.00,,,0.01,0,WeatherCatV1.15B25,2013-05-24 08:56:00,
2013-05-24 05:01:00,59.6,54.8,29.80,NW,309,4.0,7.0,84,0.00,,,0.01,0,WeatherCatV1.15B25,2013-05-24 09:01:00,
2013-05-24 05:06:00,59.0,53.8,29.80,WNW,292,3.0,5.0,83,0.00,,,0.01,0,WeatherCatV1.15B25,2013-05-24 09:06:00,
2013-05-24 05:11:00,58.4,52.6,29.81,West,280,9.0,13.0,81,0.00,,,0.01,0,WeatherCatV1.15B25,2013-05-24 09:11:00,
2013-05-24 05:16:00,57.7,52.2,29.81,NW,304,7.0,10.0,82,0.00,,,0.01,0,WeatherCatV1.15B25,2013-05-24 09:16:00,
2013-05-24 05:21:00,57.2,51.8,29.82,West,271,0.0,8.0,82,0.00,,,0.01,0,WeatherCatV1.15B25,2013-05-24 09:21:00,
2013-05-24 05:26:00,56.8,51.4,29.83,WNW,300,3.0,7.0,82,0.00,,,0.01,0,WeatherCatV1.15B25,2013-05-24 09:26:00,
2013-05-24 05:31:00,56.5,51.1,29.83,SE,146,0.0,1.0,82,0.00,,,0.01,0,WeatherCatV1.15B25,2013-05-24 09:31:00,
2013-05-24 05:36:00,56.3,51.5,29.84,West,280,1.0,2.0,84,0.00,,,0.01,0,WeatherCatV1.15B25,2013-05-24 09:36:00,
2013-05-24 05:41:00,55.9,51.1,29.84,NNW,329,1.0,3.0,84,0.00,,,0.01,0,WeatherCatV1.15B25,2013-05-24 09:41:00,
2013-05-24 05:46:00,55.6,50.2,29.84,NNE,26,0.0,2.0,82,0.00,,,0.01,0,WeatherCatV1.15B25,2013-05-24 09:46:00,
2013-05-24 05:51:00,55.3,49.9,29.84,NNW,330,2.0,3.0,82,0.00,,,0.01,0,WeatherCatV1.15B25,2013-05-24 09:51:00,
2013-05-24 05:56:00,55.0,49.3,29.85,WNW,291,4.0,8.0,81,0.00,,,0.01,0,WeatherCatV1.15B25,2013-05-24 09:56:00,
2013-05-24 06:01:00,54.8,48.7,29.85,NNW,327,5.0,6.0,80,0.00,,,0.01,0,WeatherCatV1.15B25,2013-05-24 10:01:00,
2013-05-24 06:06:00,54.6,48.6,29.86,West,263,4.0,4.0,80,0.00,,,0.01,0,WeatherCatV1.15B25,2013-05-24 10:06:00,
2013-05-24 06:11:00,54.4,48.0,29.86,ENE,61,1.0,3.0,79,0.00,,,0.01,0,WeatherCatV1.15B25,2013-05-24 10:11:00,
2013-05-24 06:16:00,54.1,47.7,29.87,WNW,283,2.0,4.0,79,0.00,,,0.01,5,WeatherCatV1.15B25,2013-05-24 10:16:00,
2013-05-24 06:21:00,53.9,47.2,29.87,SW,229,2.0,4.0,78,0.00,,,0.01,5,WeatherCatV1.15B25,2013-05-24 10:21:00,
2013-05-24 06:26:00,53.7,47.3,29.87,NNW,329,2.0,3.0,79,0.00,,,0.01,5,WeatherCatV1.15B25,2013-05-24 10:26:00,
2013-05-24 06:31:00,53.6,46.9,29.88,SW,228,2.0,5.0,78,0.00,,,0.01,7,WeatherCatV1.15B25,2013-05-24 10:31:00,
2013-05-24 06:35:00,53.5,47.1,29.88,West,262,0.0,1.0,79,0.00,,,0.01,9,WeatherCatV1.15B25,2013-05-24 10:35:00,
2013-05-24 06:40:00,53.4,46.7,29.89,North,350,0.0,3.0,78,0.00,,,0.01,9,WeatherCatV1.15B25,2013-05-24 10:40:00,
2013-05-24 06:44:00,53.4,47.1,29.89,NE,56,2.0,3.0,79,0.00,,,0.01,11,WeatherCatV1.15B25,2013-05-24 10:44:00,
2013-05-24 06:49:00,53.3,47.6,29.90,NE,47,0.0,1.0,81,0.00,,,0.01,11,WeatherCatV1.15B25,2013-05-24 10:49:00,
2013-05-24 06:54:00,53.2,47.2,29.90,East,90,0.0,1.0,80,0.00,,,0.01,12,WeatherCatV1.15B25,2013-05-24 10:54:00,
2013-05-24 06:59:00,53.1,46.8,29.91,West,259,2.0,3.0,79,0.00,,,0.01,12,WeatherCatV1.15B25,2013-05-24 10:59:00,
2013-05-24 07:04:00,53.0,46.0,29.91,NW,314,2.0,4.0,77,0.00,,,0.01,16,WeatherCatV1.15B25,2013-05-24 11:04:00,
2013-05-24 07:09:00,53.0,46.0,29.91,NNW,335,1.0,8.0,77,0.00,,,0.01,21,WeatherCatV1.15B25,2013-05-24 11:09:00,
2013-05-24 07:14:00,52.9,45.5,29.91,WNW,303,0.0,2.0,76,0.00,,,0.01,23,WeatherCatV1.15B25,2013-05-24 11:14:00,
2013-05-24 07:19:00,52.9,46.2,29.91,ENE,69,1.0,2.0,78,0.00,,,0.01,25,WeatherCatV1.15B25,2013-05-24 11:19:00,
2013-05-24 07:24:00,52.7,46.0,29.92,North,3,0.0,1.0,78,0.00,,,0.01,26,WeatherCatV1.15B25,2013-05-24 11:24:00,
2013-05-24 07:29:00,52.8,47.5,29.92,SSE,159,0.0,0.0,82,0.00,,,0.01,26,WeatherCatV1.15B25,2013-05-24 11:29:00,
2013-05-24 07:34:00,52.6,48.2,29.92,West,277,2.0,3.0,85,0.00,,,0.01,33,WeatherCatV1.15B25,2013-05-24 11:34:00,
2013-05-24 07:39:00,52.5,45.8,29.92,WNW,298,2.0,11.0,78,0.00,,,0.01,39,WeatherCatV1.15B25,2013-05-24 11:39:00,
2013-05-24 07:44:00,52.4,46.4,29.92,West,280,6.0,8.0,80,0.00,,,0.01,47,WeatherCatV1.15B25,2013-05-24 11:44:00,
2013-05-24 07:49:00,52.3,46.0,29.93,NW,312,2.0,5.0,79,0.00,,,0.01,40,WeatherCatV1.15B25,2013-05-24 11:49:00,
2013-05-24 07:54:00,52.3,46.6,29.92,WNW,287,4.0,12.0,81,0.00,,,0.01,65,WeatherCatV1.15B25,2013-05-24 11:54:00,
2013-05-24 07:59:00,52.3,46.0,29.93,WNW,289,7.0,7.0,79,0.00,,,0.01,67,WeatherCatV1.15B25,2013-05-24 11:59:00,
2013-05-24 08:04:00,52.2,45.2,29.93,WNW,303,3.0,5.0,77,0.00,,,0.01,67,WeatherCatV1.15B25,2013-05-24 12:04:00,
2013-05-24 08:09:00,52.3,45.3,29.93,NW,316,2.0,7.0,77,0.00,,,0.01,86,WeatherCatV1.15B25,2013-05-24 12:09:00,
2013-05-24 08:14:00,52.3,45.3,29.93,West,279,4.0,6.0,77,0.00,,,0.01,102,WeatherCatV1.15B25,2013-05-24 12:14:00,
2013-05-24 08:19:00,52.2,44.9,29.94,WNW,285,13.0,14.0,76,0.00,,,0.01,109,WeatherCatV1.15B25,2013-05-24 12:19:00,
2013-05-24 08:24:00,52.3,45.0,29.94,SSE,154,3.0,8.0,76,0.00,,,0.01,151,WeatherCatV1.15B25,2013-05-24 12:24:00,
2013-05-24 08:29:00,52.3,44.6,29.95,NW,319,3.0,10.0,75,0.00,,,0.01,156,WeatherCatV1.15B25,2013-05-24 12:29:00,
2013-05-24 08:34:00,52.3,44.6,29.95,NW,320,6.0,7.0,75,0.00,,,0.01,141,WeatherCatV1.15B25,2013-05-24 12:34:00,
2013-05-24 08:39:00,52.4,44.7,29.95,NNW,331,4.0,5.0,75,0.00,,,0.01,148,WeatherCatV1.15B25,2013-05-24 12:39:00,
2013-05-24 08:44:00,52.3,44.3,29.95,NNW,329,1.0,7.0,74,0.00,,,0.01,192,WeatherCatV1.15B25,2013-05-24 12:44:00,
2013-05-24 08:49:00,52.5,45.2,29.96,NNW,343,3.0,6.0,76,0.00,,,0.01,156,WeatherCatV1.15B25,2013-05-24 12:49:00,
2013-05-24 08:54:00,52.4,44.7,29.96,NNW,338,1.0,5.0,75,0.00,,,0.01,169,WeatherCatV1.15B25,2013-05-24 12:54:00,
2013-05-24 08:59:00,52.4,45.1,29.96,NNE,30,2.0,10.0,76,0.00,,,0.01,185,WeatherCatV1.15B25,2013-05-24 12:59:00,
2013-05-24 09:04:00,52.3,44.6,29.97,NE,40,7.0,8.0,75,0.00,,,0.01,188,WeatherCatV1.15B25,2013-05-24 13:04:00,
2013-05-24 09:10:00,52.3,44.6,29.97,NE,38,0.0,2.0,75,0.00,,,0.01,169,WeatherCatV1.15B25,2013-05-24 13:10:00,
2013-05-24 09:15:00,52.3,44.3,29.98,North,2,1.0,5.0,74,0.00,,,0.01,121,WeatherCatV1.15B25,2013-05-24 13:15:00,
2013-05-24 09:20:00,52.2,44.2,29.97,NW,321,1.0,10.0,74,0.00,,,0.01,162,WeatherCatV1.15B25,2013-05-24 13:20:00,
2013-05-24 09:25:00,51.9,43.9,29.97,NNW,343,5.0,8.0,74,0.00,,,0.01,193,WeatherCatV1.15B25,2013-05-24 13:25:00,
2013-05-24 09:30:00,51.8,43.8,29.97,WNW,291,5.0,6.0,74,0.00,,,0.01,225,WeatherCatV1.15B25,2013-05-24 13:30:00,
2013-05-24 09:35:00,51.7,43.3,29.98,WNW,282,4.0,11.0,73,0.00,,,0.01,156,WeatherCatV1.15B25,2013-05-24 13:35:00,
2013-05-24 09:40:00,51.6,43.6,29.98,NNW,348,1.0,9.0,74,0.00,,,0.01,211,WeatherCatV1.15B25,2013-05-24 13:40:00,
2013-05-24 09:43:00,51.7,44.4,29.97,NW,307,3.0,3.0,76,0.00,,,0.01,352,WeatherCatV1.15B25,2013-05-24 13:43:00,
2013-05-24 09:48:00,51.7,43.3,29.98,NNW,339,8.0,8.0,73,0.00,,,0.01,318,WeatherCatV1.15B25,2013-05-24 13:48:00,
2013-05-24 09:53:00,51.8,43.4,29.98,NW,314,4.0,8.0,73,0.00,,,0.01,306,WeatherCatV1.15B25,2013-05-24 13:53:00,
2013-05-24 09:57:00,52.0,43.3,29.98,NNE,17,5.0,5.0,72,0.00,,,0.01,269,WeatherCatV1.15B25,2013-05-24 13:57:00,
2013-05-24 10:02:00,52.1,43.0,29.99,NW,306,5.0,11.0,71,0.00,,,0.01,279,WeatherCatV1.15B25,2013-05-24 14:02:00,
2013-05-24 10:07:00,52.2,43.4,29.99,NNW,333,4.0,10.0,72,0.00,,,0.01,301,WeatherCatV1.15B25,2013-05-24 14:07:00,
2013-05-24 10:12:00,52.3,42.8,29.99,WNW,292,6.0,6.0,70,0.00,,,0.01,251,WeatherCatV1.15B25,2013-05-24 14:12:00,
2013-05-24 10:17:00,52.2,43.4,30.00,NNE,17,1.0,4.0,72,0.00,,,0.01,174,WeatherCatV1.15B25,2013-05-24 14:17:00,
2013-05-24 10:22:00,52.0,43.3,30.00,NE,48,2.0,8.0,72,0.00,,,0.01,163,WeatherCatV1.15B25,2013-05-24 14:22:00,
2013-05-24 10:27:00,51.8,43.4,30.00,WNW,298,5.0,8.0,73,0.00,,,0.01,188,WeatherCatV1.15B25,2013-05-24 14:27:00,
2013-05-24 10:32:00,51.7,43.0,30.00,West,281,1.0,5.0,72,0.00,,,0.01,181,WeatherCatV1.15B25,2013-05-24 14:32:00,
2013-05-24 10:37:00,51.7,43.7,30.00,North,7,1.0,5.0,74,0.00,,,0.01,192,WeatherCatV1.15B25,2013-05-24 14:37:00,
2013-05-24 10:42:00,51.7,43.3,30.00,NNW,339,1.0,6.0,73,0.00,,,0.01,204,WeatherCatV1.15B25,2013-05-24 14:42:00,
2013-05-24 10:47:00,51.7,43.0,30.01,NNW,340,5.0,7.0,72,0.00,,,0.01,185,WeatherCatV1.15B25,2013-05-24 14:47:00,
2013-05-24 10:52:00,51.6,43.9,30.01,ESE,104,2.0,10.0,75,0.00,,,0.01,179,WeatherCatV1.15B25,2013-05-24 14:52:00,
2013-05-24 10:57:00,51.6,43.2,30.01,West,279,3.0,10.0,73,0.00,,,0.01,294,WeatherCatV1.15B25,2013-05-24 14:57:00,
2013-05-24 11:02:00,51.7,43.7,30.01,NNW,337,2.0,3.0,74,0.00,,,0.01,279,WeatherCatV1.15B25,2013-05-24 15:02:00,
2013-05-24 11:07:00,52.0,43.3,30.01,NE,56,5.0,6.0,72,0.00,,,0.01,316,WeatherCatV1.15B25,2013-05-24 15:07:00,
2013-05-24 11:12:00,52.3,43.2,30.01,NW,306,2.0,9.0,71,0.00,,,0.01,301,WeatherCatV1.15B25,2013-05-24 15:12:00,
2013-05-24 11:17:00,52.5,43.4,30.01,NNW,343,2.0,8.0,71,0.00,,,0.01,311,WeatherCatV1.15B25,2013-05-24 15:17:00,
2013-05-24 11:22:00,52.6,43.5,30.01,WNW,282,3.0,9.0,71,0.00,,,0.01,294,WeatherCatV1.15B25,2013-05-24 15:22:00,
2013-05-24 11:27:00,52.7,43.2,30.01,NW,306,7.0,9.0,70,0.00,,,0.01,325,WeatherCatV1.15B25,2013-05-24 15:27:00,
2013-05-24 11:32:00,52.8,43.3,30.01,NNE,28,2.0,10.0,70,0.00,,,0.01,258,WeatherCatV1.15B25,2013-05-24 15:32:00,
2013-05-24 11:37:00,52.7,42.8,30.02,NW,310,7.0,10.0,69,0.00,,,0.01,297,WeatherCatV1.15B25,2013-05-24 15:37:00,
2013-05-24 11:42:00,52.5,43.0,30.01,ENE,65,1.0,5.0,70,0.00,,,0.01,320,WeatherCatV1.15B25,2013-05-24 15:42:00,
2013-05-24 11:47:00,52.5,42.6,30.02,WNW,296,4.0,8.0,69,0.00,,,0.01,171,WeatherCatV1.15B25,2013-05-24 15:47:00,
2013-05-24 11:52:00,52.2,43.1,30.02,WNW,287,8.0,8.0,71,0.00,,,0.01,139,WeatherCatV1.15B25,2013-05-24 15:52:00,
2013-05-24 11:57:00,52.0,42.9,30.02,NW,312,7.0,8.0,71,0.00,,,0.01,148,WeatherCatV1.15B25,2013-05-24 15:57:00,
2013-05-24 12:02:00,51.7,42.6,30.02,NW,304,8.0,9.0,71,0.00,,,0.01,155,WeatherCatV1.15B25,2013-05-24 16:02:00,
2013-05-24 12:07:00,51.6,42.5,30.03,NNW,336,4.0,7.0,71,0.00,,,0.01,148,WeatherCatV1.15B25,2013-05-24 16:07:00,
2013-05-24 12:12:00,51.5,42.8,30.03,NNE,26,1.0,6.0,72,0.00,,,0.01,130,WeatherCatV1.15B25,2013-05-24 16:12:00,
2013-05-24 12:17:00,51.5,42.4,30.03,North,355,4.0,10.0,71,0.00,,,0.01,158,WeatherCatV1.15B25,2013-05-24 16:17:00,
2013-05-24 12:22:00,51.6,42.1,30.03,NW,312,4.0,15.0,70,0.00,,,0.01,278,WeatherCatV1.15B25,2013-05-24 16:22:00,
2013-05-24 12:27:00,51.9,42.8,30.03,West,273,5.0,5.0,71,0.00,,,0.01,401,WeatherCatV1.15B25,2013-05-24 16:27:00,
2013-05-24 12:33:00,52.4,42.9,30.03,NNW,337,2.0,8.0,70,0.00,,,0.01,308,WeatherCatV1.15B25,2013-05-24 16:33:00,
2013-05-24 12:38:00,52.8,43.3,30.02,North,0,3.0,5.0,70,0.00,,,0.01,221,WeatherCatV1.15B25,2013-05-24 16:38:00,
2013-05-24 12:43:00,52.9,43.4,30.03,SE,134,1.0,6.0,70,0.00,,,0.01,253,WeatherCatV1.15B25,2013-05-24 16:43:00,
2013-05-24 12:48:00,53.1,44.3,30.03,NNW,331,3.0,6.0,72,0.00,,,0.01,192,WeatherCatV1.15B25,2013-05-24 16:48:00,
2013-05-24 12:53:00,53.2,44.4,30.03,WNW,288,1.0,1.0,72,0.00,,,0.01,220,WeatherCatV1.15B25,2013-05-24 16:53:00,
2013-05-24 13:15:00,52.1,43.0,30.04,SW,215,2.0,5.0,71,0.00,,,0.01,162,WeatherCatV1.15B25,2013-05-24 17:15:00,
2013-05-24 13:20:00,52.1,42.2,30.04,WNW,302,4.0,10.0,69,0.00,,,0.01,185,WeatherCatV1.15B25,2013-05-24 17:20:00,
2013-05-24 13:25:00,52.2,42.7,30.04,NNE,17,1.0,3.0,70,0.00,,,0.01,214,WeatherCatV1.15B25,2013-05-24 17:25:00,
2013-05-24 13:30:00,52.4,42.9,30.04,North,7,3.0,5.0,70,0.00,,,0.01,211,WeatherCatV1.15B25,2013-05-24 17:30:00,
2013-05-24 13:35:00,52.6,43.5,30.05,North,358,3.0,8.0,71,0.00,,,0.01,211,WeatherCatV1.15B25,2013-05-24 17:35:00,
2013-05-24 13:40:00,52.8,43.3,30.05,West,266,3.0,9.0,70,0.00,,,0.01,257,WeatherCatV1.15B25,2013-05-24 17:40:00,
2013-05-24 13:42:00,52.8,43.3,30.05,West,278,1.0,3.0,70,0.00,,,0.01,306,WeatherCatV1.15B25,2013-05-24 17:42:00,
2013-05-24 13:47:00,53.0,41.9,30.04,NW,315,7.0,19.0,66,0.00,,,0.01,283,WeatherCatV1.15B25,2013-05-24 17:47:00,
2013-05-24 13:52:00,53.0,41.9,30.05,NNW,340,6.0,8.0,66,0.00,,,0.01,309,WeatherCatV1.15B25,2013-05-24 17:52:00,
2013-05-24 13:57:00,53.1,43.6,30.05,West,279,2.0,3.0,70,0.00,,,0.01,257,WeatherCatV1.15B25,2013-05-24 17:57:00,
2013-05-24 14:02:00,53.2,42.5,30.05,NW,306,2.0,5.0,67,0.00,,,0.01,237,WeatherCatV1.15B25,2013-05-24 18:02:00,
2013-05-24 14:07:00,53.2,42.9,30.05,West,273,2.0,8.0,68,0.00,,,0.01,262,WeatherCatV1.15B25,2013-05-24 18:07:00,
2013-05-24 14:12:00,53.2,42.5,30.05,WNW,299,6.0,7.0,67,0.00,,,0.01,241,WeatherCatV1.15B25,2013-05-24 18:12:00,
2013-05-24 14:17:00,53.1,42.4,30.06,WSW,256,17.0,17.0,67,0.00,,,0.01,211,WeatherCatV1.15B25,2013-05-24 18:17:00,
2013-05-24 14:22:00,52.9,42.2,30.06,North,7,1.0,9.0,67,0.00,,,0.01,185,WeatherCatV1.15B25,2013-05-24 18:22:00,
2013-05-24 14:25:00,52.9,43.0,30.06,NW,307,3.0,3.0,69,0.00,,,0.01,192,WeatherCatV1.15B25,2013-05-24 18:25:00,
2013-05-24 14:30:00,52.9,42.6,30.06,NW,316,6.0,7.0,68,0.00,,,0.01,192,WeatherCatV1.15B25,2013-05-24 18:30:00,
2013-05-24 14:35:00,52.9,42.2,30.06,NNW,329,0.0,5.0,67,0.00,,,0.01,253,WeatherCatV1.15B25,2013-05-24 18:35:00,
2013-05-24 14:40:00,53.0,41.9,30.05,NW,320,2.0,10.0,66,0.00,,,0.01,250,WeatherCatV1.15B25,2013-05-24 18:40:00,
2013-05-24 14:45:00,53.1,41.6,30.05,WNW,296,6.0,7.0,65,0.00,,,0.01,234,WeatherCatV1.15B25,2013-05-24 18:45:00,
2013-05-24 14:50:00,53.3,42.6,30.05,West,271,6.0,7.0,67,0.00,,,0.01,253,WeatherCatV1.15B25,2013-05-24 18:50:00,
2013-05-24 14:56:00,53.6,42.1,30.06,WNW,289,4.0,11.0,65,0.00,,,0.01,338,WeatherCatV1.15B25,2013-05-24 18:56:00,
2013-05-24 15:01:00,54.0,42.5,30.05,West,276,13.0,14.0,65,0.00,,,0.01,309,WeatherCatV1.15B25,2013-05-24 19:01:00,
2013-05-24 15:06:00,54.2,41.9,30.06,NNW,341,5.0,7.0,63,0.00,,,0.01,323,WeatherCatV1.15B25,2013-05-24 19:06:00,
2013-05-24 15:11:00,54.5,42.6,30.05,North,7,4.0,7.0,64,0.00,,,0.01,374,WeatherCatV1.15B25,2013-05-24 19:11:00,
2013-05-24 15:16:00,55.1,41.9,30.05,NW,308,8.0,9.0,61,0.00,,,0.01,434,WeatherCatV1.15B25,2013-05-24 19:16:00,
2013-05-24 15:21:00,55.2,42.0,30.06,North,356,4.0,10.0,61,0.00,,,0.01,313,WeatherCatV1.15B25,2013-05-24 19:21:00,
2013-05-24 15:26:00,55.2,41.1,30.06,NW,306,3.0,15.0,59,0.00,,,0.01,265,WeatherCatV1.15B25,2013-05-24 19:26:00,
2013-05-24 15:31:00,55.1,41.5,30.05,WNW,292,10.0,11.0,60,0.00,,,0.01,251,WeatherCatV1.15B25,2013-05-24 19:31:00,
2013-05-24 15:36:00,54.9,41.3,30.06,NW,304,3.0,5.0,60,0.00,,,0.01,287,WeatherCatV1.15B25,2013-05-24 19:36:00,
2013-05-24 15:42:00,55.2,42.4,30.06,WNW,300,3.0,7.0,62,0.00,,,0.01,359,WeatherCatV1.15B25,2013-05-24 19:42:00,
2013-05-24 15:47:00,55.9,42.6,30.05,NW,311,2.0,12.0,61,0.00,,,0.01,241,WeatherCatV1.15B25,2013-05-24 19:47:00,
2013-05-24 15:52:00,56.2,42.1,30.06,WSW,246,2.0,5.0,59,0.00,,,0.01,199,WeatherCatV1.15B25,2013-05-24 19:52:00,
2013-05-24 15:57:00,56.0,41.4,30.06,WNW,300,7.0,13.0,58,0.00,,,0.01,172,WeatherCatV1.15B25,2013-05-24 19:57:00,
2013-05-24 16:02:00,55.6,41.5,30.06,WNW,298,5.0,8.0,59,0.00,,,0.01,188,WeatherCatV1.15B25,2013-05-24 20:02:00,
2013-05-24 16:07:00,55.2,42.0,30.06,NNW,333,5.0,8.0,61,0.00,,,0.01,195,WeatherCatV1.15B25,2013-05-24 20:07:00,
2013-05-24 16:12:00,55.0,41.4,30.06,NW,317,8.0,9.0,60,0.00,,,0.01,160,WeatherCatV1.15B25,2013-05-24 20:12:00,
2013-05-24 16:17:00,54.6,41.0,30.06,West,264,5.0,9.0,60,0.00,,,0.01,192,WeatherCatV1.15B25,2013-05-24 20:17:00,
2013-05-24 16:22:00,54.6,41.0,30.07,West,274,6.0,11.0,60,0.00,,,0.01,211,WeatherCatV1.15B25,2013-05-24 20:22:00,
2013-05-24 16:27:00,54.9,41.3,30.07,WNW,302,5.0,8.0,60,0.00,,,0.01,258,WeatherCatV1.15B25,2013-05-24 20:27:00,
2013-05-24 16:32:00,55.2,40.2,30.07,WNW,287,9.0,13.0,57,0.00,,,0.01,274,WeatherCatV1.15B25,2013-05-24 20:32:00,
2013-05-24 16:37:00,55.1,41.0,30.07,West,274,5.0,8.0,59,0.00,,,0.01,165,WeatherCatV1.15B25,2013-05-24 20:37:00,
2013-05-24 16:42:00,54.8,41.2,30.07,NW,306,5.0,7.0,60,0.00,,,0.01,276,WeatherCatV1.15B25,2013-05-24 20:42:00,
2013-05-24 16:47:00,55.2,41.1,30.07,WSW,255,4.0,6.0,59,0.00,,,0.01,176,WeatherCatV1.15B25,2013-05-24 20:47:00,
2013-05-24 16:52:00,55.2,40.7,30.08,NW,305,3.0,5.0,58,0.00,,,0.01,190,WeatherCatV1.15B25,2013-05-24 20:52:00,
2013-05-24 16:57:00,54.9,40.4,30.08,WNW,283,5.0,8.0,58,0.00,,,0.01,216,WeatherCatV1.15B25,2013-05-24 20:57:00,
2013-05-24 17:02:00,54.9,40.4,30.08,WNW,284,18.0,18.0,58,0.00,,,0.01,543,WeatherCatV1.15B25,2013-05-24 21:02:00,
2013-05-24 17:07:00,54.8,40.3,30.08,NNW,330,7.0,7.0,58,0.00,,,0.01,271,WeatherCatV1.15B25,2013-05-24 21:07:00,
2013-05-24 17:12:00,54.4,38.6,30.08,WNW,287,14.0,17.0,55,0.00,,,0.01,158,WeatherCatV1.15B25,2013-05-24 21:12:00,
2013-05-24 17:17:00,54.2,38.8,30.09,NW,307,6.0,10.0,56,0.00,,,0.01,661,WeatherCatV1.15B25,2013-05-24 21:17:00,
2013-05-24 17:22:00,54.6,41.0,30.08,West,281,8.0,8.0,60,0.00,,,0.01,621,WeatherCatV1.15B25,2013-05-24 21:22:00,
2013-05-24 17:27:00,54.6,39.7,30.09,NW,304,4.0,9.0,57,0.00,,,0.01,269,WeatherCatV1.15B25,2013-05-24 21:27:00,
2013-05-24 17:32:00,54.4,39.0,30.09,NW,322,6.0,12.0,56,0.00,,,0.01,603,WeatherCatV1.15B25,2013-05-24 21:32:00,
2013-05-24 17:37:00,54.6,38.8,30.09,WNW,285,7.0,14.0,55,0.00,,,0.01,533,WeatherCatV1.15B25,2013-05-24 21:37:00,
2013-05-24 17:42:00,54.5,38.7,30.09,NNW,345,4.0,7.0,55,0.00,,,0.01,517,WeatherCatV1.15B25,2013-05-24 21:42:00,
2013-05-24 17:47:00,54.1,38.3,30.09,NW,321,14.0,14.0,55,0.00,,,0.01,86,WeatherCatV1.15B25,2013-05-24 21:47:00,
2013-05-24 17:52:00,53.4,38.1,30.09,NW,314,10.0,11.0,56,0.00,,,0.01,366,WeatherCatV1.15B25,2013-05-24 21:52:00,
2013-05-24 17:57:00,53.2,37.5,30.09,West,281,10.0,13.0,55,0.00,,,0.01,443,WeatherCatV1.15B25,2013-05-24 21:57:00,
2013-05-24 18:02:00,53.2,37.0,30.09,WNW,291,8.0,12.0,54,0.00,,,0.01,446,WeatherCatV1.15B25,2013-05-24 22:02:00,
2013-05-24 18:07:00,53.2,37.5,30.09,WSW,255,8.0,16.0,55,0.00,,,0.01,374,WeatherCatV1.15B25,2013-05-24 22:07:00,
2013-05-24 18:12:00,53.2,37.0,30.09,ENE,61,4.0,13.0,54,0.00,,,0.01,336,WeatherCatV1.15B25,2013-05-24 22:12:00,
2013-05-24 18:17:00,53.2,36.5,30.10,NNW,333,12.0,15.0,53,0.00,,,0.01,72,WeatherCatV1.15B25,2013-05-24 22:17:00,
2013-05-24 18:21:00,53.2,37.0,30.10,NW,320,3.0,3.0,54,0.00,,,0.01,47,WeatherCatV1.15B25,2013-05-24 22:21:00,
2013-05-24 18:26:00,53.1,37.8,30.10,West,279,6.0,10.0,56,0.00,,,0.01,58,WeatherCatV1.15B25,2013-05-24 22:26:00,
2013-05-24 18:31:00,52.9,36.7,30.10,NW,312,3.0,11.0,54,0.00,,,0.01,42,WeatherCatV1.15B25,2013-05-24 22:31:00,
2013-05-24 18:36:00,52.6,36.9,30.10,WSW,252,5.0,9.0,55,0.00,,,0.01,58,WeatherCatV1.15B25,2013-05-24 22:36:00,
2013-05-24 18:41:00,52.2,37.4,30.11,North,357,3.0,7.0,57,0.00,,,0.01,35,WeatherCatV1.15B25,2013-05-24 22:41:00,
2013-05-24 18:46:00,51.8,36.6,30.11,WNW,295,7.0,12.0,56,0.00,,,0.01,37,WeatherCatV1.15B25,2013-05-24 22:46:00,
2013-05-24 18:51:00,51.6,36.9,30.11,ENE,63,0.0,3.0,57,0.00,,,0.01,32,WeatherCatV1.15B25,2013-05-24 22:51:00,
2013-05-24 18:56:00,51.3,35.7,30.11,NE,38,4.0,7.0,55,0.00,,,0.01,28,WeatherCatV1.15B25,2013-05-24 22:56:00,
2013-05-24 19:01:00,51.2,35.6,30.12,NW,318,3.0,11.0,55,0.00,,,0.01,28,WeatherCatV1.15B25,2013-05-24 23:01:00,
2013-05-24 19:06:00,51.0,36.7,30.12,SSE,156,1.0,2.0,58,0.00,,,0.01,30,WeatherCatV1.15B25,2013-05-24 23:06:00,
2013-05-24 19:11:00,50.8,35.2,30.12,East,87,0.0,2.0,55,0.00,,,0.01,60,WeatherCatV1.15B25,2013-05-24 23:11:00,
2013-05-24 19:16:00,50.8,36.1,30.12,NNW,347,1.0,2.0,57,0.00,,,0.01,46,WeatherCatV1.15B25,2013-05-24 23:16:00,
2013-05-24 19:21:00,50.7,36.0,30.13,WNW,292,2.0,5.0,57,0.00,,,0.01,32,WeatherCatV1.15B25,2013-05-24 23:21:00,
2013-05-24 19:26:00,50.6,35.5,30.13,East,81,0.0,5.0,56,0.00,,,0.01,42,WeatherCatV1.15B25,2013-05-24 23:26:00,
2013-05-24 19:31:00,50.5,35.4,30.13,West,273,1.0,5.0,56,0.00,,,0.01,25,WeatherCatV1.15B25,2013-05-24 23:31:00,
2013-05-24 19:36:00,50.4,35.3,30.13,NW,318,0.0,5.0,56,0.00,,,0.01,26,WeatherCatV1.15B25,2013-05-24 23:36:00,
2013-05-24 19:41:00,50.2,37.3,30.14,NE,51,1.0,6.0,61,0.00,,,0.01,25,WeatherCatV1.15B25,2013-05-24 23:41:00,
2013-05-24 19:46:00,49.9,36.1,30.14,ESE,108,0.0,2.0,59,0.00,,,0.01,21,WeatherCatV1.15B25,2013-05-24 23:46:00,
2013-05-24 19:51:00,49.6,35.4,30.14,NNW,341,0.0,9.0,58,0.00,,,0.01,19,WeatherCatV1.15B25,2013-05-24 23:51:00,
2013-05-24 19:56:00,49.5,34.9,30.14,West,278,4.0,10.0,57,0.00,,,0.01,16,WeatherCatV1.15B25,2013-05-24 23:56:00,
2013-05-24 20:01:00,49.4,35.2,30.15,NW,322,2.0,4.0,58,0.00,,,0.01,14,WeatherCatV1.15B25,2013-05-25 00:01:00,
2013-05-24 20:06:00,49.3,35.2,30.15,NW,323,3.0,5.0,58,0.00,,,0.01,12,WeatherCatV1.15B25,2013-05-25 00:06:00,
2013-05-24 20:11:00,49.1,35.0,30.15,WNW,292,0.0,2.0,58,0.00,,,0.01,11,WeatherCatV1.15B25,2013-05-25 00:11:00,
2013-05-24 20:16:00,49.0,35.3,30.15,WSW,250,1.0,2.0,59,0.00,,,0.01,7,WeatherCatV1.15B25,2013-05-25 00:16:00,
2013-05-24 20:21:00,48.7,35.0,30.16,West,271,3.0,4.0,59,0.00,,,0.01,5,WeatherCatV1.15B25,2013-05-25 00:21:00,
2013-05-24 20:26:00,48.5,34.4,30.16,WNW,294,3.0,3.0,58,0.00,,,0.01,5,WeatherCatV1.15B25,2013-05-25 00:26:00,
2013-05-24 20:31:00,48.4,34.3,30.16,East,87,2.0,2.0,58,0.00,,,0.01,0,WeatherCatV1.15B25,2013-05-25 00:31:00,
2013-05-24 20:36:00,48.1,33.6,30.16,North,355,4.0,9.0,57,0.00,,,0.01,0,WeatherCatV1.15B25,2013-05-25 00:36:00,
2013-05-24 20:41:00,48.0,35.6,30.16,West,259,2.0,5.0,62,0.00,,,0.01,0,WeatherCatV1.15B25,2013-05-25 00:41:00,
2013-05-24 20:46:00,47.8,33.7,30.16,NE,42,0.0,6.0,58,0.00,,,0.01,0,WeatherCatV1.15B25,2013-05-25 00:46:00,
2013-05-24 20:51:00,47.8,34.2,30.16,NNW,338,5.0,10.0,59,0.00,,,0.01,0,WeatherCatV1.15B25,2013-05-25 00:51:00,
2013-05-24 20:57:00,47.7,34.1,30.16,NE,42,1.0,9.0,59,0.00,,,0.01,0,WeatherCatV1.15B25,2013-05-25 00:57:00,
2013-05-24 21:02:00,47.6,35.2,30.17,North,350,3.0,3.0,62,0.00,,,0.01,0,WeatherCatV1.15B25,2013-05-25 01:02:00,
2013-05-24 21:07:00,47.4,33.8,30.17,NE,48,1.0,6.0,59,0.00,,,0.01,0,WeatherCatV1.15B25,2013-05-25 01:07:00,
2013-05-24 21:12:00,47.5,33.5,30.18,NW,316,4.0,7.0,58,0.00,,,0.01,0,WeatherCatV1.15B25,2013-05-25 01:12:00,
2013-05-24 21:17:00,47.6,32.7,30.18,WNW,287,2.0,5.0,56,0.00,,,0.01,0,WeatherCatV1.15B25,2013-05-25 01:17:00,
2013-05-24 21:22:00,47.5,32.6,30.18,SSE,162,0.0,5.0,56,0.00,,,0.01,0,WeatherCatV1.15B25,2013-05-25 01:22:00,
2013-05-24 21:27:00,47.4,32.9,30.18,NW,326,6.0,6.0,57,0.00,,,0.01,0,WeatherCatV1.15B25,2013-05-25 01:27:00,
2013-05-24 21:32:00,47.3,33.3,30.18,North,0,3.0,5.0,58,0.00,,,0.01,0,WeatherCatV1.15B25,2013-05-25 01:32:00,
2013-05-24 21:37:00,47.3,32.8,30.19,West,278,3.0,8.0,57,0.00,,,0.01,0,WeatherCatV1.15B25,2013-05-25 01:37:00,
2013-05-24 21:42:00,47.2,33.2,30.19,NNW,332,1.0,6.0,58,0.00,,,0.01,0,WeatherCatV1.15B25,2013-05-25 01:42:00,
2013-05-24 21:47:00,47.2,33.2,30.19,NW,318,5.0,9.0,58,0.00,,,0.01,0,WeatherCatV1.15B25,2013-05-25 01:47:00,
2013-05-24 21:52:00,47.1,33.5,30.19,North,1,3.0,12.0,59,0.00,,,0.01,0,WeatherCatV1.15B25,2013-05-25 01:52:00,
2013-05-24 21:57:00,47.1,33.5,30.20,WSW,256,1.0,2.0,59,0.00,,,0.01,0,WeatherCatV1.15B25,2013-05-25 01:57:00,
2013-05-24 22:02:00,47.0,33.4,30.20,NNW,343,0.0,7.0,59,0.00,,,0.01,0,WeatherCatV1.15B25,2013-05-25 02:02:00,
2013-05-24 22:07:00,47.0,33.4,30.20,WNW,297,2.0,7.0,59,0.00,,,0.01,0,WeatherCatV1.15B25,2013-05-25 02:07:00,
2013-05-24 22:12:00,47.0,33.8,30.21,NNW,336,2.0,3.0,60,0.00,,,0.01,0,WeatherCatV1.15B25,2013-05-25 02:12:00,
2013-05-24 22:17:00,46.9,33.8,30.21,NW,304,2.0,3.0,60,0.00,,,0.01,0,WeatherCatV1.15B25,2013-05-25 02:17:00,
2013-05-24 22:22:00,46.9,34.2,30.21,WNW,300,0.0,2.0,61,0.00,,,0.01,0,WeatherCatV1.15B25,2013-05-25 02:22:00,
2013-05-24 22:27:00,46.8,33.7,30.22,WNW,299,1.0,4.0,60,0.00,,,0.01,0,WeatherCatV1.15B25,2013-05-25 02:27:00,
2013-05-24 22:32:00,46.8,34.5,30.22,West,279,4.0,5.0,62,0.00,,,0.01,0,WeatherCatV1.15B25,2013-05-25 02:32:00,
2013-05-24 22:37:00,46.7,34.0,30.22,NNW,343,1.0,3.0,61,0.00,,,0.01,0,WeatherCatV1.15B25,2013-05-25 02:37:00,
2013-05-24 22:42:00,46.6,33.9,30.22,NNE,25,1.0,3.0,61,0.00,,,0.01,0,WeatherCatV1.15B25,2013-05-25 02:42:00,
2013-05-24 22:47:00,46.7,35.2,30.22,WNW,301,0.0,2.0,64,0.00,,,0.01,0,WeatherCatV1.15B25,2013-05-25 02:47:00,
2013-05-24 22:52:00,46.6,33.0,30.22,NW,310,7.0,8.0,59,0.00,,,0.01,0,WeatherCatV1.15B25,2013-05-25 02:52:00,
2013-05-24 22:57:00,46.7,33.1,30.22,NNW,341,0.0,2.0,59,0.00,,,0.01,0,WeatherCatV1.15B25,2013-05-25 02:57:00,
2013-05-24 23:02:00,46.6,33.5,30.22,NE,45,2.0,4.0,60,0.00,,,0.01,0,WeatherCatV1.15B25,2013-05-25 03:02:00,
2013-05-24 23:07:00,46.5,33.0,30.21,North,7,4.0,8.0,59,0.00,,,0.01,0,WeatherCatV1.15B25,2013-05-25 03:07:00,
2013-05-24 23:12:00,46.5,32.5,30.22,NW,310,4.0,7.0,58,0.00,,,0.01,0,WeatherCatV1.15B25,2013-05-25 03:12:00,
2013-05-24 23:17:00,46.5,32.5,30.22,NNW,331,3.0,7.0,58,0.00,,,0.01,0,WeatherCatV1.15B25,2013-05-25 03:17:00,
2013-05-24 23:19:00,46.5,32.1,30.22,NNW,339,2.0,3.0,57,0.00,,,0.01,0,WeatherCatV1.15B25,2013-05-25 03:19:00,
2013-05-24 23:24:00,46.4,32.4,30.22,NW,321,4.0,5.0,58,0.00,,,0.01,0,WeatherCatV1.15B25,2013-05-25 03:24:00,
2013-05-24 23:29:00,46.2,31.8,30.22,WNW,288,6.0,15.0,57,0.00,,,0.01,0,WeatherCatV1.15B25,2013-05-25 03:29:00,
2013-05-24 23:34:00,46.1,32.2,30.22,North,350,2.0,5.0,58,0.00,,,0.01,0,WeatherCatV1.15B25,2013-05-25 03:34:00,
2013-05-24 23:39:00,45.9,33.6,30.22,NW,312,1.0,3.0,62,0.00,,,0.01,0,WeatherCatV1.15B25,2013-05-25 03:39:00,
2013-05-24 23:44:00,45.5,31.6,30.22,NNW,333,2.0,3.0,58,0.00,,,0.01,0,WeatherCatV1.15B25,2013-05-25 03:44:00,
2013-05-24 23:49:00,45.5,32.4,30.21,NNE,17,0.0,2.0,60,0.00,,,0.01,0,WeatherCatV1.15B25,2013-05-25 03:49:00,
2013-05-24 23:56:00,45.1,32.1,30.21,WNW,298,2.0,4.0,60,0.00,,,0.01,0,WeatherCatV1.15B25,2013-05-25 03:56:00,